TFM - Tactical Decision Aid (Experimental) INFO Settings
ID: Runway Winds: CIG/VIS Threshold: METAR Board: Map:

KATL - Atlanta-Hartsfield Jackson Intl

Updated at: 1957 UTC 26 Aug 2016
Latest TAF at: 1937 UTC 26 Aug 2016

TAF Board

Time1952Z26/20Z26/21Z26/22Z26/23Z27/00Z27/01Z27/02Z27/03Z27/04Z27/05Z27/06Z27/07Z27/08Z
TypeOBSPRVLPRVL
  [TEMP]  
PRVL
  [TEMP]  
PRVLPRVLPRVLPRVLPRVLPRVLPRVLPRVLPRVLPRVL
VIS10>6>6
  [6]  
>6
  [6]  
>6>6>6>6>6>6>6>6>6>6
CIG------
  [35]  
--
  [35]  
--------------------
CoverSCTSCTSCT
  [BKN]  
SCT
  [BKN]  
SCTSCTSCTSCTSCTSCTSCTSCTSCTSCT
FltCatVFRVFRVFR
  [VFR]  
VFR
  [VFR]  
VFRVFRVFRVFRVFRVFRVFRVFRVFRVFR
WX------
  [TSRA BR]  
--
  [TSRA BR]  
--------------------
WDirVRB9090
[90]
90
[90]
9090100100100100100100100100
WSpd688
  [8]  
8
  [8]  
8844444444
WGst------
  [--]  
--
  [--]  
--------------------
TAF
KATL 261937Z 2620/2724 09008KT P6SM SCT050
  TEMPO 2621/2623 6SM TSRA BR BKN035CB
  FM270100 10004KT P6SM SCT250
  FM271500 09007KT P6SM SCT045
  FM271900 10010KT P6SM SCT060


METAR
KATL 261952Z VRB06KT 10SM SCT060 33/19 A3005 RMK AO2 SLP163 CB DSNT N MDT CU SW-NW T03330194
KATL 261852Z COR 09008KT 10SM FEW055TCU SCT070 33/19 A3008 RMK AO2 SLP173 TCU N MDT CU SE-SW & SW-NW SHRA N T03330194

TAF/METAR Board Legend

Potential Impact
  None Marginal Slight Moderate High
Visibility (sm) >5 3≤X≤5 1≤X<3 0.5≤X<1 <0.5
Ceiling (100 ft) >30 10≤X≤30 4≤X<10 2≤X<4 <2
Wind Speed (kt) <10 10≤X<20 20≤X<30 ≥30
Wind Gust (kt) <15 15≤X<25 25≤X<35 ≥35
Weather No Wx Reported VCTS -TS,-FZRA TS,FZRA +TS,+FZRA